PWSweather.com
Personal Weather Stations
Station Observations
KCOBOOMER
Belmont, Pueblo, CO 81001

BelmontPueblo, CO 81001

Lat: 38.2977486, Lon: -104.5754318

Elevation: 4795

Station Type: Davis Vantage Pro 2

http://www.puebloweather.net

Latest ConditionsUpdated 3:35:03 AM MST Wednesday, Feb 22, 2017
Currently Today's Max Today's Min Today's Average
Temperature 58.6°F14.8°C 59.7°F15.4°C 56.8°F13.8°C 58.3°F14.6°C
Dew Point 23.8°F-4.6°C 25.3°F-3.7°C 23.5°F-4.7°C 24.4°F-4.2°C
Winds 4.0 mph WSW6.4 kmh WSW 25.0 mph W40.2 kmh W - 6.0 mph 9.7 kmh
Wind Gusts 20.0 mph32.2 kmh 31.0 mph49.9 kmh - -
Humidity 26% 28% 26% 27%
Pressure 29.69 in1005.4 mb 29.78 in1008.5 mb 29.68 in1005.1 mb -
Hour Temp Dew Point Humidity Winds Wind Gusts Pressure Precip Precip Rate Daily Precip Total
03:35 AM 58.6°F14.8°C 23.8°F-4.6°C 26% 4.0 mph WSW6.4 kmh WSW 20.0 mph32.2 kmh 29.69 in1005.4 mb 0.00 in0.0 mm 0.00 in0.0 mm 0.00 in0.0 mm
03:30 AM 58.6°F14.8°C 23.8°F-4.6°C 26% 7.0 mph SW11.3 kmh SW 11.0 mph17.7 kmh 29.68 in1005.1 mb 0.00 in0.0 mm 0.00 in0.0 mm 0.00 in0.0 mm
03:25 AM 58.5°F14.7°C 23.8°F-4.6°C 26% 10.0 mph SW16.1 kmh SW 20.0 mph32.2 kmh 29.68 in1005.1 mb 0.00 in0.0 mm 0.00 in0.0 mm 0.00 in0.0 mm
03:20 AM 58.3°F14.6°C 24.5°F-4.2°C 27% 8.0 mph WSW12.9 kmh WSW 10.0 mph16.1 kmh 29.68 in1005.1 mb 0.00 in0.0 mm 0.00 in0.0 mm 0.00 in0.0 mm
03:15 AM 58.3°F14.6°C 24.5°F-4.2°C 27% 4.0 mph SW6.4 kmh SW 18.0 mph29.0 kmh 29.69 in1005.4 mb 0.00 in0.0 mm 0.00 in0.0 mm 0.00 in0.0 mm
03:10 AM 58.5°F14.7°C 24.7°F-4.1°C 27% 2.0 mph WSW3.2 kmh WSW 4.0 mph6.4 kmh 29.69 in1005.4 mb 0.00 in0.0 mm 0.00 in0.0 mm 0.00 in0.0 mm
03:05 AM 58.4°F14.7°C 24.6°F-4.1°C 27% 6.0 mph SW9.7 kmh SW 14.0 mph22.5 kmh 29.69 in1005.4 mb 0.00 in0.0 mm 0.00 in0.0 mm 0.00 in0.0 mm
03:00 AM 58.4°F14.7°C 24.6°F-4.1°C 27% 2.0 mph W3.2 kmh W 8.0 mph12.9 kmh 29.69 in1005.4 mb 0.00 in0.0 mm 0.00 in0.0 mm 0.00 in0.0 mm
02:55 AM 58.2°F14.6°C 24.4°F-4.2°C 27% 1.0 mph WSW1.6 kmh WSW 16.0 mph25.7 kmh 29.69 in1005.4 mb 0.00 in0.0 mm 0.00 in0.0 mm 0.00 in0.0 mm
02:50 AM 58.3°F14.6°C 24.5°F-4.2°C 27% Calm Calm -- 29.69 in1005.4 mb 0.00 in0.0 mm 0.00 in0.0 mm 0.00 in0.0 mm
02:45 AM 58.4°F14.7°C 24.6°F-4.1°C 27% 10.0 mph S16.1 kmh S 18.0 mph29.0 kmh 29.69 in1005.4 mb 0.00 in0.0 mm 0.00 in0.0 mm 0.00 in0.0 mm
02:40 AM 58.7°F14.8°C 24.8°F-4.0°C 27% 1.0 mph S1.6 kmh S 4.0 mph6.4 kmh 29.69 in1005.4 mb 0.00 in0.0 mm 0.00 in0.0 mm 0.00 in0.0 mm
02:35 AM 59.0°F15.0°C 25.1°F-3.8°C 27% 2.0 mph WSW3.2 kmh WSW 16.0 mph25.7 kmh 29.69 in1005.4 mb 0.00 in0.0 mm 0.00 in0.0 mm 0.00 in0.0 mm
02:30 AM 59.4°F15.2°C 24.5°F-4.2°C 26% 4.0 mph WSW6.4 kmh WSW 10.0 mph16.1 kmh 29.70 in1005.8 mb 0.00 in0.0 mm 0.00 in0.0 mm 0.00 in0.0 mm
02:25 AM 59.7°F15.4°C 24.8°F-4.0°C 26% 14.0 mph WSW22.5 kmh WSW 30.0 mph48.3 kmh 29.70 in1005.8 mb 0.00 in0.0 mm 0.00 in0.0 mm 0.00 in0.0 mm
02:20 AM 59.7°F15.4°C 24.8°F-4.0°C 26% 12.0 mph SW19.3 kmh SW 12.0 mph19.3 kmh 29.70 in1005.8 mb 0.00 in0.0 mm 0.00 in0.0 mm 0.00 in0.0 mm
02:15 AM 59.6°F15.3°C 24.7°F-4.1°C 26% 18.0 mph SW29.0 kmh SW 28.0 mph45.1 kmh 29.70 in1005.8 mb 0.00 in0.0 mm 0.00 in0.0 mm 0.00 in0.0 mm
02:10 AM 59.5°F15.3°C 24.6°F-4.1°C 26% 18.0 mph SSW29.0 kmh SSW 22.0 mph35.4 kmh 29.70 in1005.8 mb 0.00 in0.0 mm 0.00 in0.0 mm 0.00 in0.0 mm
02:05 AM 59.5°F15.3°C 24.6°F-4.1°C 26% 10.0 mph S16.1 kmh S 24.0 mph38.6 kmh 29.70 in1005.8 mb 0.00 in0.0 mm 0.00 in0.0 mm 0.00 in0.0 mm
02:00 AM 59.6°F15.3°C 24.7°F-4.1°C 26% 10.0 mph W16.1 kmh W 10.0 mph16.1 kmh 29.70 in1005.8 mb 0.00 in0.0 mm 0.00 in0.0 mm 0.00 in0.0 mm
01:55 AM 59.5°F15.3°C 24.6°F-4.1°C 26% 8.0 mph W12.9 kmh W 31.0 mph49.9 kmh 29.71 in1006.1 mb 0.00 in0.0 mm 0.00 in0.0 mm 0.00 in0.0 mm
01:50 AM 59.5°F15.3°C 24.6°F-4.1°C 26% 20.0 mph SW32.2 kmh SW 20.0 mph32.2 kmh 29.71 in1006.1 mb 0.00 in0.0 mm 0.00 in0.0 mm 0.00 in0.0 mm
01:45 AM 59.2°F15.1°C 25.3°F-3.7°C 27% 25.0 mph W40.2 kmh W 29.0 mph46.7 kmh 29.71 in1006.1 mb 0.00 in0.0 mm 0.00 in0.0 mm 0.00 in0.0 mm
01:40 AM 58.8°F14.9°C 24.9°F-3.9°C 27% 10.0 mph WSW16.1 kmh WSW 10.0 mph16.1 kmh 29.72 in1006.4 mb 0.00 in0.0 mm 0.00 in0.0 mm 0.00 in0.0 mm
01:35 AM 58.2°F14.6°C 24.4°F-4.2°C 27% 1.0 mph WSW1.6 kmh WSW 19.0 mph30.6 kmh 29.72 in1006.4 mb 0.00 in0.0 mm 0.00 in0.0 mm 0.00 in0.0 mm
01:30 AM 57.9°F14.4°C 25.0°F-3.9°C 28% Calm Calm 4.0 mph6.4 kmh 29.73 in1006.8 mb 0.00 in0.0 mm 0.00 in0.0 mm 0.00 in0.0 mm
01:25 AM 57.7°F14.3°C 24.8°F-4.0°C 28% Calm Calm 19.0 mph30.6 kmh 29.73 in1006.8 mb 0.00 in0.0 mm 0.00 in0.0 mm 0.00 in0.0 mm
01:20 AM 57.4°F14.1°C 24.6°F-4.1°C 28% Calm Calm -- 29.73 in1006.8 mb 0.00 in0.0 mm 0.00 in0.0 mm 0.00 in0.0 mm
01:15 AM 57.1°F13.9°C 24.3°F-4.3°C 28% 7.0 mph WSW11.3 kmh WSW 16.0 mph25.7 kmh 29.74 in1007.1 mb 0.00 in0.0 mm 0.00 in0.0 mm 0.00 in0.0 mm
01:10 AM 57.0°F13.9°C 24.2°F-4.3°C 28% Calm Calm -- 29.74 in1007.1 mb 0.00 in0.0 mm 0.00 in0.0 mm 0.00 in0.0 mm
01:05 AM 57.0°F13.9°C 24.2°F-4.3°C 28% Calm Calm 10.0 mph16.1 kmh 29.74 in1007.1 mb 0.00 in0.0 mm 0.00 in0.0 mm 0.00 in0.0 mm
01:00 AM 56.9°F13.8°C 24.2°F-4.3°C 28% Calm Calm 1.0 mph1.6 kmh 29.75 in1007.5 mb 0.00 in0.0 mm 0.00 in0.0 mm 0.00 in0.0 mm
12:55 AM 56.9°F13.8°C 24.2°F-4.3°C 28% Calm Calm 16.0 mph25.7 kmh 29.75 in1007.5 mb 0.00 in0.0 mm 0.00 in0.0 mm 0.00 in0.0 mm
12:50 AM 56.8°F13.8°C 24.1°F-4.4°C 28% 11.0 mph SW17.7 kmh SW 16.0 mph25.7 kmh 29.76 in1007.8 mb 0.00 in0.0 mm 0.00 in0.0 mm 0.00 in0.0 mm
12:45 AM 56.9°F13.8°C 24.2°F-4.3°C 28% Calm Calm -- 29.76 in1007.8 mb 0.00 in0.0 mm 0.00 in0.0 mm 0.00 in0.0 mm
12:40 AM 57.1°F13.9°C 24.3°F-4.3°C 28% Calm Calm -- 29.76 in1007.8 mb 0.00 in0.0 mm 0.00 in0.0 mm 0.00 in0.0 mm
12:35 AM 57.3°F14.1°C 24.5°F-4.2°C 28% Calm Calm 14.0 mph22.5 kmh 29.76 in1007.8 mb 0.00 in0.0 mm 0.00 in0.0 mm 0.00 in0.0 mm
12:30 AM 57.5°F14.2°C 23.8°F-4.6°C 27% 4.0 mph WSW6.4 kmh WSW 8.0 mph12.9 kmh 29.77 in1008.1 mb 0.00 in0.0 mm 0.00 in0.0 mm 0.00 in0.0 mm
12:25 AM 57.7°F14.3°C 24.0°F-4.4°C 27% Calm Calm 15.0 mph24.1 kmh 29.77 in1008.1 mb 0.00 in0.0 mm 0.00 in0.0 mm 0.00 in0.0 mm
12:20 AM 57.7°F14.3°C 24.0°F-4.4°C 27% Calm Calm 2.0 mph3.2 kmh 29.77 in1008.1 mb 0.00 in0.0 mm 0.00 in0.0 mm 0.00 in0.0 mm
12:15 AM 57.8°F14.3°C 24.1°F-4.4°C 27% 15.0 mph SW24.1 kmh SW 16.0 mph25.7 kmh 29.77 in1008.1 mb 0.00 in0.0 mm 0.00 in0.0 mm 0.00 in0.0 mm
12:10 AM 57.9°F14.4°C 24.1°F-4.4°C 27% 9.0 mph SW14.5 kmh SW 14.0 mph22.5 kmh 29.77 in1008.1 mb 0.00 in0.0 mm 0.00 in0.0 mm 0.00 in0.0 mm
12:05 AM 58.2°F14.6°C 23.5°F-4.7°C 26% 2.0 mph WSW3.2 kmh WSW 18.0 mph29.0 kmh 29.77 in1008.1 mb 0.00 in0.0 mm 0.00 in0.0 mm 0.00 in0.0 mm
12:00 AM 58.3°F14.6°C 23.6°F-4.7°C 26% 8.0 mph WSW12.9 kmh WSW 10.0 mph16.1 kmh 29.78 in1008.5 mb 0.00 in0.0 mm 0.00 in0.0 mm 0.00 in0.0 mm